Lookout, Kentucky
Current Conditions -  °F | °C
As of 11:15 PM on Wednesday 28 Jan 2015 (Local Time) from KPBX Reporting Station
Clear Clear  
Wind Chill: 29°   Ceiling: Unl
Heat Index: 29°   Visibility: 10mi
Dew Point: 19°   Wind: 3mph
Humidity: 66%   Direction: 160°SSE
Pressure: 30.2"   Gusts: NA
Location:  37.31°N, 82.47°W
Report Text: KPBX 290415Z AUTO 16003KT 10SM CLR M01/M07 A3020 RMK AO2 T10141070
Loading
Personal Weather Stations






























Interactive Weather Map New forecast layout! Learn more

10-Day Weather Forecast

Advertisements
Track Severe Weather on mobile